createdAt,value
2022-09-15T00:02:16.668Z,0.0
2022-09-15T00:07:17.813Z,0.0
2022-09-15T00:12:18.799Z,0.0
2022-09-15T00:17:19.724Z,0.0
2022-09-15T00:22:20.664Z,0.0
2022-09-15T00:27:21.653Z,0.0
2022-09-15T00:32:22.846Z,0.0
2022-09-15T00:37:23.765Z,0.0
2022-09-15T00:42:24.843Z,0.0
2022-09-15T00:47:25.988Z,0.0
2022-09-15T00:52:27.078Z,0.0
2022-09-15T00:57:28.135Z,0.0
2022-09-15T01:02:29.209Z,0.0
2022-09-15T01:07:30.151Z,0.0
2022-09-15T01:12:31.277Z,0.0
2022-09-15T01:17:32.205Z,0.0
2022-09-15T01:22:33.193Z,0.0
2022-09-15T01:27:41.602Z,0.0
2022-09-15T01:32:43.085Z,0.0
2022-09-15T01:37:44.153Z,0.0
2022-09-15T01:42:45.158Z,0.0
2022-09-15T01:47:46.172Z,0.0
2022-09-15T01:52:47.242Z,0.0
2022-09-15T01:57:48.153Z,0.0
2022-09-15T02:02:49.292Z,0.0
2022-09-15T02:07:50.212Z,0.0
2022-09-15T02:12:51.284Z,0.0
2022-09-15T02:17:52.233Z,0.0
2022-09-15T02:22:53.158Z,0.0
2022-09-15T02:27:54.208Z,0.0
2022-09-15T02:32:55.144Z,0.0
2022-09-15T02:37:56.064Z,0.0
2022-09-15T02:42:57.071Z,0.0
2022-09-15T02:47:58.049Z,0.0
2022-09-15T02:52:58.997Z,0.0
2022-09-15T02:58:00.034Z,0.0
2022-09-15T03:03:00.990Z,0.0
2022-09-15T03:08:01.949Z,0.0
2022-09-15T03:13:03.100Z,0.0
2022-09-15T03:18:04.084Z,0.0
2022-09-15T03:23:05.149Z,0.0
2022-09-15T03:28:06.118Z,0.0
2022-09-15T03:33:07.262Z,0.0
2022-09-15T03:38:08.212Z,0.0
2022-09-15T03:43:09.204Z,0.0
2022-09-15T03:48:10.185Z,0.0
2022-09-15T03:53:11.128Z,0.0
2022-09-15T03:58:12.032Z,0.0
2022-09-15T04:03:12.968Z,0.0
2022-09-15T04:08:13.884Z,0.0
2022-09-15T04:13:14.898Z,0.0
2022-09-15T04:18:15.923Z,0.0
2022-09-15T04:23:16.806Z,0.8296
2022-09-15T04:28:17.810Z,3.67
2022-09-15T04:33:18.934Z,6.17815
2022-09-15T04:38:19.873Z,7.89335
2022-09-15T04:43:20.897Z,13.0941
2022-09-15T04:48:21.861Z,20.1945
2022-09-15T04:53:23.073Z,29.06525
2022-09-15T04:58:24.000Z,42.03005
2022-09-15T05:03:25.025Z,50.5319
2022-09-15T05:08:25.936Z,70.28335
2022-09-15T05:13:26.965Z,75.42895
2022-09-15T05:18:27.902Z,83.87565
2022-09-15T05:23:29.022Z,97.94715
2022-09-15T05:28:30.168Z,117.27455
2022-09-15T05:33:31.258Z,122.18055
2022-09-15T05:38:32.312Z,135.4591
2022-09-15T05:43:33.416Z,139.20325
2022-09-15T05:48:34.442Z,149.9185
2022-09-15T05:53:35.447Z,161.4267
2022-09-15T05:58:36.365Z,171.77305
2022-09-15T06:03:37.390Z,177.7306
2022-09-15T06:08:40.531Z,185.7171
2022-09-15T06:13:44.708Z,184.29665
2022-09-15T06:18:45.983Z,276.467
2022-09-15T06:23:50.712Z,201.2109
2022-09-15T06:28:51.988Z,217.7354
2022-09-15T06:33:53.267Z,227.0872
2022-09-15T06:38:54.457Z,228.43535
2022-09-15T06:43:55.447Z,265.46995
2022-09-15T06:48:56.462Z,288.40545
2022-09-15T06:53:57.535Z,396.0175
2022-09-15T06:58:58.555Z,357.14025
2022-09-15T07:03:59.550Z,449.0784
2022-09-15T07:09:00.503Z,443.8188
2022-09-15T07:14:01.675Z,795.58915
2022-09-15T07:19:02.614Z,471.13455
2022-09-15T07:24:07.030Z,473.71685
2022-09-15T07:29:08.640Z,482.31185
2022-09-15T07:34:09.579Z,574.174
2022-09-15T07:39:10.580Z,529.76015
2022-09-15T07:44:11.516Z,559.4217
2022-09-15T07:49:12.665Z,535.5113
2022-09-15T07:54:16.265Z,529.39435
2022-09-15T07:59:19.646Z,355.2443
2022-09-15T08:04:20.675Z,383.59075
2022-09-15T08:09:21.618Z,618.5296
2022-09-15T08:14:22.740Z,499.4314
2022-09-15T08:19:23.821Z,483.9909
2022-09-15T08:29:25.287Z,632.74385
2022-09-15T08:34:26.324Z,589.33135
2022-09-15T08:39:27.330Z,811.83975
2022-09-15T08:44:28.647Z,477.62645
2022-09-15T08:49:47.832Z,712.1204
2022-09-15T08:54:52.374Z,703.56155
2022-09-15T08:59:53.389Z,502.8887
2022-09-15T09:04:54.430Z,356.62675
2022-09-15T09:09:55.368Z,400.02025
2022-09-15T09:14:56.302Z,419.84585
2022-09-15T09:19:57.232Z,397.0709
2022-09-15T09:24:58.234Z,343.8464
2022-09-15T09:29:59.222Z,352.95675
2022-09-15T09:35:00.225Z,336.17365
2022-09-15T09:40:01.294Z,314.4484
2022-09-15T09:45:02.418Z,341.1348
2022-09-15T09:50:03.500Z,414.90555
2022-09-15T09:55:04.591Z,420.1063
2022-09-15T10:00:05.512Z,512.00275
2022-09-15T10:05:06.614Z,733.00865
2022-09-15T10:10:07.786Z,777.0621
2022-09-15T10:15:08.763Z,691.87445
2022-09-15T10:20:10.401Z,881.81675
2022-09-15T10:25:11.405Z,765.1048
2022-09-15T10:30:12.446Z,769.69275
2022-09-15T10:35:13.680Z,415.51405
2022-09-15T10:40:14.615Z,529.19275
2022-09-15T10:45:15.608Z,502.8201
2022-09-15T10:50:16.613Z,929.48875
2022-09-15T10:55:24.812Z,743.32235
2022-09-15T11:00:38.148Z,799.32015
2022-09-15T11:05:39.125Z,788.2376
2022-09-15T11:10:40.040Z,585.3436
2022-09-15T11:15:42.184Z,574.6763
2022-09-15T11:20:43.257Z,390.0961
2022-09-15T11:25:44.169Z,284.29545
2022-09-15T11:30:47.803Z,319.85075
2022-09-15T11:35:49.200Z,530.0237
2022-09-15T11:40:50.256Z,555.71355
2022-09-15T11:45:51.236Z,560.0645
2022-09-15T11:50:52.158Z,424.49695
2022-09-15T11:55:53.165Z,520.7289
2022-09-15T12:00:54.062Z,402.9543
2022-09-15T12:05:54.986Z,499.4781
2022-09-15T12:10:55.937Z,347.2008
2022-09-15T12:15:57.487Z,288.25835
2022-09-15T12:20:58.564Z,332.3002
2022-09-15T12:25:59.463Z,387.52305
2022-09-15T12:31:00.502Z,335.1564
2022-09-15T12:36:01.614Z,130.6481
2022-09-15T12:41:02.533Z,151.4321
2022-09-15T12:46:03.711Z,130.07575
2022-09-15T12:51:04.598Z,131.79095
2022-09-15T12:56:05.489Z,414.8314
2022-09-15T13:01:18.088Z,548.22355
2022-09-15T13:06:19.818Z,348.4901
2022-09-15T13:11:20.762Z,393.1233
2022-09-15T13:16:21.728Z,772.3197
2022-09-15T13:21:22.734Z,1158.7954
2022-09-15T13:26:23.949Z,1100.0907
2022-09-15T13:31:24.929Z,2321.06105
2022-09-15T13:36:26.630Z,1988.4392
2022-09-15T13:41:27.721Z,426.5565
2022-09-15T13:46:28.942Z,460.60375
2022-09-15T13:51:29.979Z,890.09985
2022-09-15T14:01:45.351Z,533.92405
2022-09-15T14:06:46.355Z,411.8195
2022-09-15T14:11:47.298Z,1290.63915
2022-09-15T14:16:48.523Z,679.98205
2022-09-15T14:21:49.478Z,1004.533
2022-09-15T14:26:50.368Z,939.2567
2022-09-15T14:31:51.479Z,466.5423
2022-09-15T14:36:52.509Z,546.05665
2022-09-15T14:41:53.473Z,378.0554
2022-09-15T14:46:54.418Z,320.286
2022-09-15T14:51:55.335Z,157.2965
2022-09-15T14:56:58.299Z,148.9981
2022-09-15T15:01:59.309Z,176.90335
2022-09-15T15:07:00.265Z,167.1122
2022-09-15T15:12:01.237Z,210.7643
2022-09-15T15:17:02.696Z,208.3493
2022-09-15T15:22:03.671Z,207.9804
2022-09-15T15:27:04.686Z,239.0176
2022-09-15T15:32:05.650Z,211.0952
2022-09-15T15:37:06.612Z,181.6972
2022-09-15T15:42:07.543Z,121.88765
2022-09-15T15:47:08.550Z,77.8648
2022-09-15T15:52:09.620Z,45.36915
2022-09-15T15:57:10.696Z,43.52465
2022-09-15T16:02:11.839Z,30.4857
2022-09-15T16:07:12.869Z,42.80585
2022-09-15T16:12:13.789Z,37.15435
2022-09-15T16:17:15.091Z,82.9009
2022-09-15T16:22:16.017Z,80.2937
2022-09-15T16:27:16.930Z,76.59265
2022-09-15T16:32:17.867Z,91.788
2022-09-15T16:37:18.869Z,91.3811
2022-09-15T16:42:19.782Z,81.5881
2022-09-15T16:47:21.083Z,65.6911
2022-09-15T16:52:22.352Z,50.5319
2022-09-15T16:57:23.766Z,35.483
2022-09-15T17:02:24.984Z,29.54445
2022-09-15T17:07:25.989Z,20.85815
2022-09-15T17:12:26.961Z,12.3563
2022-09-15T17:17:28.436Z,5.3852
2022-09-15T17:22:29.583Z,3.85445
2022-09-15T17:27:30.461Z,0.88885
2022-09-15T17:32:34.776Z,0.4148
2022-09-15T17:37:35.986Z,0.0
2022-09-15T17:42:36.982Z,0.0
2022-09-15T17:47:37.869Z,0.4148
2022-09-15T17:52:38.888Z,0.0
2022-09-15T17:57:40.707Z,0.0
2022-09-15T18:02:41.677Z,0.0
2022-09-15T18:07:47.724Z,0.0
2022-09-15T18:12:50.108Z,0.0
2022-09-15T18:17:53.390Z,0.0
2022-09-15T18:22:54.319Z,0.0
2022-09-15T18:27:55.247Z,0.0
2022-09-15T18:32:56.145Z,0.0
2022-09-15T18:37:57.115Z,0.0
2022-09-15T18:42:58.049Z,0.0
2022-09-15T18:47:58.968Z,0.0
2022-09-15T18:53:00.017Z,0.0
2022-09-15T18:58:01.313Z,0.0
2022-09-15T19:03:02.479Z,0.0
2022-09-15T19:08:03.373Z,0.0
2022-09-15T19:13:04.358Z,0.0
2022-09-15T19:18:05.298Z,0.0
2022-09-15T19:23:06.333Z,0.0
2022-09-15T19:28:07.278Z,0.0
2022-09-15T19:33:08.220Z,0.0
2022-09-15T19:38:09.118Z,0.0
2022-09-15T19:43:10.017Z,0.0
2022-09-15T19:48:11.016Z,0.0
2022-09-15T19:53:12.001Z,0.0
2022-09-15T19:58:12.908Z,0.0
2022-09-15T20:03:13.800Z,0.0
2022-09-15T20:08:15.265Z,0.0
2022-09-15T20:13:16.326Z,0.0
2022-09-15T20:18:17.296Z,0.0
2022-09-15T20:23:18.312Z,0.0
2022-09-15T20:28:19.243Z,0.0
2022-09-15T20:33:20.169Z,0.0
2022-09-15T20:38:21.234Z,0.0
2022-09-15T20:43:22.169Z,0.0
2022-09-15T20:48:24.061Z,0.0
2022-09-15T20:53:26.457Z,0.0
2022-09-15T20:58:27.530Z,0.0
2022-09-15T21:03:28.474Z,0.0
2022-09-15T21:08:29.443Z,0.0
2022-09-15T21:13:30.380Z,0.0
2022-09-15T21:18:31.284Z,0.0
2022-09-15T21:23:32.230Z,0.0
2022-09-15T21:28:33.146Z,0.0
2022-09-15T21:33:34.031Z,0.0
2022-09-15T21:38:34.940Z,0.0
2022-09-15T21:43:36.050Z,0.0
2022-09-15T21:48:37.102Z,0.0
2022-09-15T21:53:38.123Z,0.0
2022-09-15T21:58:42.647Z,0.0
2022-09-15T22:03:44.642Z,0.0
2022-09-15T22:08:45.866Z,0.0
2022-09-15T22:13:47.030Z,0.0
2022-09-15T22:18:48.241Z,0.0
2022-09-15T22:23:49.196Z,0.0
2022-09-15T22:28:50.118Z,0.0
2022-09-15T22:33:51.057Z,0.0
2022-09-15T22:38:52.020Z,0.0
2022-09-15T22:43:53.058Z,0.0
2022-09-15T22:48:54.001Z,0.0
2022-09-15T22:53:55.027Z,0.0
2022-09-15T22:58:56.127Z,0.0
2022-09-15T23:03:57.279Z,0.0
2022-09-15T23:08:58.267Z,0.0
2022-09-15T23:13:59.185Z,0.0
2022-09-15T23:19:00.111Z,0.0
2022-09-15T23:24:01.145Z,0.0
2022-09-15T23:29:02.081Z,0.0
2022-09-15T23:34:03.070Z,0.0
2022-09-15T23:39:04.057Z,0.0
2022-09-15T23:44:05.441Z,0.0
2022-09-15T23:49:06.344Z,0.0
2022-09-15T23:54:07.281Z,0.0
2022-09-15T23:59:08.330Z,0.0
